createdAt,value
2022-08-08T00:00:50.279Z,19.27
2022-08-08T00:05:44.255Z,19.16
2022-08-08T00:11:20.417Z,18.98
2022-08-08T00:16:25.573Z,19.18
2022-08-08T00:21:39.618Z,18.94
2022-08-08T00:26:49.522Z,18.97
2022-08-08T00:32:05.914Z,18.86
2022-08-08T00:37:48.249Z,18.60
2022-08-08T00:43:19.982Z,18.48
2022-08-08T00:48:34.210Z,18.48
2022-08-08T00:54:04.700Z,18.72
2022-08-08T00:59:52.061Z,18.48
2022-08-08T01:05:42.398Z,18.53
2022-08-08T01:10:58.199Z,18.42
2022-08-08T01:16:40.527Z,18.27
2022-08-08T01:22:12.360Z,18.22
2022-08-08T01:27:33.207Z,18.02
2022-08-08T01:33:16.248Z,18.05
2022-08-08T01:38:35.324Z,18.05
2022-08-08T01:43:48.137Z,17.90
2022-08-08T01:49:23.313Z,17.99
2022-08-08T01:55:19.404Z,17.94
2022-08-08T02:00:28.080Z,17.76
2022-08-08T02:05:59.260Z,17.75
2022-08-08T02:11:58.503Z,17.33
2022-08-08T02:17:10.729Z,17.82
2022-08-08T02:23:05.303Z,17.54
2022-08-08T02:28:17.893Z,17.71
2022-08-08T02:34:00.595Z,17.14
2022-08-08T02:38:55.371Z,17.27
2022-08-08T02:44:49.539Z,17.49
2022-08-08T02:50:23.893Z,17.54
2022-08-08T02:56:08.604Z,17.54
2022-08-08T03:01:15.328Z,17.38
2022-08-08T03:06:38.221Z,17.36
2022-08-08T03:12:05.731Z,17.09
2022-08-08T03:17:13.051Z,17.00
2022-08-08T03:22:38.034Z,17.13
2022-08-08T03:27:56.750Z,16.59
2022-08-08T03:33:55.679Z,16.81
2022-08-08T03:38:57.603Z,17.02
2022-08-08T03:44:09.809Z,16.97
2022-08-08T03:49:58.847Z,17.03
2022-08-08T03:55:01.983Z,16.77
2022-08-08T04:00:11.415Z,16.99
2022-08-08T04:05:28.507Z,16.83
2022-08-08T04:10:37.369Z,16.86
2022-08-08T04:16:04.157Z,16.79
2022-08-08T04:21:06.543Z,16.78
2022-08-08T04:26:09.627Z,16.67
2022-08-08T04:31:12.005Z,16.59
2022-08-08T04:36:33.625Z,17.16
2022-08-08T04:41:36.489Z,17.11
2022-08-08T04:46:39.550Z,17.40
2022-08-08T04:51:55.181Z,17.11
2022-08-08T04:56:59.379Z,17.39
2022-08-08T05:02:01.190Z,17.40
2022-08-08T05:07:04.098Z,17.85
2022-08-08T05:12:09.223Z,17.97
2022-08-08T05:17:12.505Z,17.77
2022-08-08T05:22:17.865Z,18.18
2022-08-08T05:27:23.594Z,18.47
2022-08-08T05:32:29.933Z,18.48
2022-08-08T05:37:53.182Z,18.85
2022-08-08T05:43:38.122Z,18.63
2022-08-08T05:48:31.334Z,19.10
2022-08-08T05:54:25.748Z,19.09
2022-08-08T05:59:06.054Z,19.41
2022-08-08T06:04:23.034Z,19.83
2022-08-08T06:10:00.043Z,19.95
2022-08-08T06:14:57.897Z,20.33
2022-08-08T06:20:03.483Z,20.36
2022-08-08T06:25:05.974Z,20.45
2022-08-08T06:30:20.187Z,20.63
2022-08-08T06:36:06.670Z,20.83
2022-08-08T06:40:58.207Z,20.68
2022-08-08T06:46:03.985Z,21.02
2022-08-08T06:51:07.830Z,21.18
2022-08-08T06:56:10.701Z,21.34
2022-08-08T07:02:17.806Z,21.50
2022-08-08T07:06:44.954Z,21.31
2022-08-08T07:11:51.334Z,21.72
2022-08-08T07:17:02.686Z,21.62
2022-08-08T07:22:12.106Z,21.82
2022-08-08T07:27:35.516Z,22.05
2022-08-08T07:32:47.720Z,22.11
2022-08-08T07:38:04.733Z,22.26
2022-08-08T07:43:32.343Z,22.21
2022-08-08T07:48:39.932Z,22.22
2022-08-08T07:54:00.996Z,22.38
2022-08-08T07:59:04.821Z,22.52
2022-08-08T08:04:14.206Z,22.62
2022-08-08T08:09:26.495Z,22.66
2022-08-08T08:14:45.975Z,22.83
2022-08-08T08:19:50.578Z,22.77
2022-08-08T08:24:59.081Z,22.97
2022-08-08T08:30:09.929Z,23.01
2022-08-08T08:35:13.206Z,23.04
2022-08-08T08:40:17.810Z,23.18
2022-08-08T08:45:23.655Z,23.03
2022-08-08T08:50:34.892Z,23.12
2022-08-08T08:55:41.081Z,23.20
2022-08-08T09:01:05.352Z,23.09
2022-08-08T09:06:26.198Z,23.24
2022-08-08T09:11:33.236Z,23.18
2022-08-08T09:16:35.614Z,22.99
2022-08-08T09:21:59.850Z,23.08
2022-08-08T09:27:14.809Z,23.12
2022-08-08T09:33:54.022Z,23.04
2022-08-08T09:38:32.094Z,23.08
2022-08-08T09:44:05.374Z,23.15
2022-08-08T09:49:41.650Z,23.27
2022-08-08T09:54:41.860Z,23.06
2022-08-08T10:00:01.943Z,23.18
2022-08-08T10:05:27.986Z,23.25
2022-08-08T10:10:50.019Z,23.17
2022-08-08T10:16:00.367Z,23.38
2022-08-08T10:21:25.106Z,23.43
2022-08-08T10:27:13.750Z,23.60
2022-08-08T10:32:37.499Z,23.64
2022-08-08T10:37:51.031Z,23.57
2022-08-08T10:43:03.265Z,23.52
2022-08-08T10:48:04.784Z,23.58
2022-08-08T10:53:12.897Z,23.54
2022-08-08T10:58:15.850Z,23.59
2022-08-08T11:03:52.340Z,23.66
2022-08-08T11:08:50.155Z,23.68
2022-08-08T11:14:00.558Z,23.78
2022-08-08T11:19:04.768Z,23.74
2022-08-08T11:24:09.983Z,23.90
2022-08-08T11:29:12.964Z,23.85
2022-08-08T11:34:28.825Z,23.81
2022-08-08T11:39:39.505Z,23.87
2022-08-08T11:44:41.199Z,23.98
2022-08-08T11:49:44.742Z,24.02
2022-08-08T11:54:51.224Z,24.02
2022-08-08T12:00:06.303Z,24.26
2022-08-08T12:05:13.970Z,24.02
2022-08-08T12:10:17.769Z,24.00
2022-08-08T12:15:42.861Z,24.01
2022-08-08T12:20:50.430Z,24.14
2022-08-08T12:25:52.728Z,24.17
2022-08-08T12:31:05.845Z,24.18
2022-08-08T12:36:12.498Z,24.11
2022-08-08T12:41:18.218Z,24.27
2022-08-08T12:46:36.151Z,24.40
2022-08-08T12:51:49.963Z,24.22
2022-08-08T12:57:01.044Z,24.46
2022-08-08T13:02:02.694Z,24.28
2022-08-08T13:07:11.816Z,24.23
2022-08-08T13:12:29.439Z,24.30
2022-08-08T13:18:08.129Z,24.44
2022-08-08T13:23:29.993Z,24.43
2022-08-08T13:28:28.354Z,24.48
2022-08-08T13:33:42.129Z,24.35
2022-08-08T13:38:44.837Z,24.46
2022-08-08T13:43:47.462Z,24.43
2022-08-08T13:50:33.429Z,24.48
2022-08-08T13:54:20.749Z,24.56
2022-08-08T13:59:33.767Z,24.58
2022-08-08T14:04:35.470Z,24.48
2022-08-08T14:10:05.882Z,24.47
2022-08-08T14:15:03.775Z,24.49
2022-08-08T14:20:14.873Z,24.58
2022-08-08T14:25:30.823Z,24.73
2022-08-08T14:30:33.941Z,24.72
2022-08-08T14:35:35.941Z,24.74
2022-08-08T14:40:42.072Z,24.85
2022-08-08T14:46:02.902Z,24.75
2022-08-08T14:51:07.279Z,24.64
2022-08-08T14:56:09.855Z,24.62
2022-08-08T15:01:15.704Z,24.86
2022-08-08T15:06:25.605Z,24.94
2022-08-08T15:11:27.186Z,24.86
2022-08-08T15:16:29.033Z,24.88
2022-08-08T15:21:33.046Z,24.91
2022-08-08T15:26:34.607Z,24.94
2022-08-08T15:32:03.096Z,24.85
2022-08-08T15:37:02.207Z,25.04
2022-08-08T15:42:04.871Z,24.91
2022-08-08T15:47:15.628Z,24.94
2022-08-08T15:52:22.581Z,24.89
2022-08-08T15:57:26.850Z,25.11
2022-08-08T16:02:37.520Z,25.05
2022-08-08T16:07:52.505Z,25.01
2022-08-08T16:13:05.466Z,25.04
2022-08-08T16:18:17.706Z,25.03
2022-08-08T16:23:21.508Z,25.08
2022-08-08T16:28:36.324Z,24.97
2022-08-08T16:33:40.198Z,24.87
2022-08-08T16:38:46.445Z,24.86
2022-08-08T16:43:50.966Z,24.86
2022-08-08T16:48:54.031Z,24.73
2022-08-08T16:55:24.088Z,24.67
2022-08-08T16:59:17.179Z,24.59
2022-08-08T17:04:19.417Z,24.56
2022-08-08T17:09:24.023Z,24.50
2022-08-08T17:14:36.589Z,24.49
2022-08-08T17:19:41.973Z,24.43
2022-08-08T17:24:43.681Z,24.35
2022-08-08T17:29:57.055Z,24.30
2022-08-08T17:35:53.939Z,24.22
2022-08-08T17:40:20.755Z,24.23
2022-08-08T17:45:24.459Z,24.17
2022-08-08T17:50:26.534Z,24.13
2022-08-08T17:56:06.888Z,24.04
2022-08-08T18:00:56.031Z,23.96
2022-08-08T18:05:59.036Z,23.89
2022-08-08T18:11:14.965Z,23.85
2022-08-08T18:16:23.177Z,23.77
2022-08-08T18:21:59.522Z,23.72
2022-08-08T18:26:56.590Z,23.64
2022-08-08T18:31:59.079Z,23.66
2022-08-08T18:37:04.710Z,23.58
2022-08-08T18:42:13.731Z,23.53
2022-08-08T18:47:16.067Z,23.50
2022-08-08T18:52:22.349Z,23.46
2022-08-08T18:57:24.995Z,23.36
2022-08-08T19:02:29.924Z,23.21
2022-08-08T19:07:33.335Z,23.18
2022-08-08T19:12:39.570Z,22.99
2022-08-08T19:18:31.238Z,23.05
2022-08-08T19:23:08.624Z,22.94
2022-08-08T19:28:18.179Z,22.87
2022-08-08T19:33:24.506Z,22.68
2022-08-08T19:38:26.200Z,22.72
2022-08-08T19:43:28.183Z,22.71
2022-08-08T19:48:31.209Z,22.59
2022-08-08T19:53:51.258Z,22.63
2022-08-08T19:58:54.866Z,22.39
2022-08-08T20:04:01.711Z,22.39
2022-08-08T20:09:09.026Z,22.42
2022-08-08T20:14:34.698Z,22.47
2022-08-08T20:19:34.833Z,22.39
2022-08-08T20:24:44.106Z,22.23
2022-08-08T20:30:00.353Z,22.23
2022-08-08T20:35:03.352Z,22.26
2022-08-08T20:40:07.278Z,22.23
2022-08-08T20:45:09.282Z,22.12
2022-08-08T20:50:14.862Z,22.11
2022-08-08T20:55:25.895Z,22.05
2022-08-08T21:00:27.929Z,22.05
2022-08-08T21:05:31.924Z,21.89
2022-08-08T21:10:33.754Z,21.93
2022-08-08T21:16:05.618Z,21.98
2022-08-08T21:20:57.935Z,21.89
2022-08-08T21:25:59.467Z,21.79
2022-08-08T21:31:05.941Z,21.65
2022-08-08T21:36:28.793Z,21.67
2022-08-08T21:41:42.745Z,21.69
2022-08-08T21:48:03.901Z,21.67
2022-08-08T21:54:27.503Z,21.43
2022-08-08T21:57:42.633Z,21.40
2022-08-08T22:02:46.580Z,21.36
2022-08-08T22:07:49.889Z,21.38
2022-08-08T22:12:51.559Z,21.29
2022-08-08T22:17:53.558Z,21.11
2022-08-08T22:22:56.488Z,21.17
2022-08-08T22:29:13.893Z,21.14
2022-08-08T22:34:13.019Z,21.03
2022-08-08T22:38:49.198Z,20.84
2022-08-08T22:44:02.755Z,20.89
2022-08-08T22:49:09.101Z,20.91
2022-08-08T22:54:33.849Z,20.85
2022-08-08T22:59:36.052Z,20.48
2022-08-08T23:04:56.270Z,20.52
2022-08-08T23:10:00.149Z,20.48
2022-08-08T23:15:11.211Z,20.33
2022-08-08T23:20:27.317Z,20.01
2022-08-08T23:25:29.327Z,20.47
2022-08-08T23:30:30.899Z,20.43
2022-08-08T23:35:34.234Z,20.41
2022-08-08T23:40:54.409Z,20.36
2022-08-08T23:49:04.766Z,19.51
2022-08-08T23:51:41.829Z,20.13
2022-08-08T23:56:39.212Z,20.09
